sensor_id;sensor_type;location;lat;lon;timestamp;P1;durP1;ratioP1;P2;durP2;ratioP2
7033;SDS011;3558;53.176;10.412;2024-03-08T00:00:31;10.43;;;7.05;;
7033;SDS011;3558;53.176;10.412;2024-03-08T00:02:58;10.40;;;7.22;;
7033;SDS011;3558;53.176;10.412;2024-03-08T00:05:23;9.70;;;7.10;;
7033;SDS011;3558;53.176;10.412;2024-03-08T00:07:49;10.33;;;7.00;;
7033;SDS011;3558;53.176;10.412;2024-03-08T00:10:14;10.60;;;7.53;;
7033;SDS011;3558;53.176;10.412;2024-03-08T00:12:42;9.38;;;7.05;;
7033;SDS011;3558;53.176;10.412;2024-03-08T00:15:09;10.05;;;6.75;;
7033;SDS011;3558;53.176;10.412;2024-03-08T00:17:36;10.30;;;6.90;;
7033;SDS011;3558;53.176;10.412;2024-03-08T00:20:01;9.63;;;7.03;;
7033;SDS011;3558;53.176;10.412;2024-03-08T00:22:33;10.40;;;7.38;;
7033;SDS011;3558;53.176;10.412;2024-03-08T00:24:59;9.00;;;6.60;;
7033;SDS011;3558;53.176;10.412;2024-03-08T00:27:24;9.40;;;6.97;;
7033;SDS011;3558;53.176;10.412;2024-03-08T00:29:50;10.07;;;7.07;;
7033;SDS011;3558;53.176;10.412;2024-03-08T00:32:15;9.55;;;7.05;;
7033;SDS011;3558;53.176;10.412;2024-03-08T00:34:42;9.07;;;6.63;;
7033;SDS011;3558;53.176;10.412;2024-03-08T00:37:07;9.38;;;6.78;;
7033;SDS011;3558;53.176;10.412;2024-03-08T00:39:33;9.20;;;7.10;;
7033;SDS011;3558;53.176;10.412;2024-03-08T00:41:59;8.63;;;6.40;;
7033;SDS011;3558;53.176;10.412;2024-03-08T00:44:24;8.80;;;6.70;;
7033;SDS011;3558;53.176;10.412;2024-03-08T00:46:50;8.50;;;6.80;;
7033;SDS011;3558;53.176;10.412;2024-03-08T00:49:16;11.20;;;7.30;;
7033;SDS011;3558;53.176;10.412;2024-03-08T00:51:41;9.32;;;6.72;;
7033;SDS011;3558;53.176;10.412;2024-03-08T00:54:08;9.30;;;6.75;;
7033;SDS011;3558;53.176;10.412;2024-03-08T00:56:34;8.73;;;6.90;;
7033;SDS011;3558;53.176;10.412;2024-03-08T00:59:00;9.05;;;6.50;;
7033;SDS011;3558;53.176;10.412;2024-03-08T01:01:27;10.35;;;6.90;;
7033;SDS011;3558;53.176;10.412;2024-03-08T01:03:53;9.30;;;6.60;;
7033;SDS011;3558;53.176;10.412;2024-03-08T01:06:18;9.65;;;7.00;;
7033;SDS011;3558;53.176;10.412;2024-03-08T01:08:44;8.93;;;6.28;;
7033;SDS011;3558;53.176;10.412;2024-03-08T01:11:10;9.15;;;6.32;;
7033;SDS011;3558;53.176;10.412;2024-03-08T01:13:37;8.60;;;6.47;;
7033;SDS011;3558;53.176;10.412;2024-03-08T01:16:03;9.25;;;6.47;;
7033;SDS011;3558;53.176;10.412;2024-03-08T01:18:29;8.65;;;6.65;;
7033;SDS011;3558;53.176;10.412;2024-03-08T01:20:55;10.48;;;6.82;;
7033;SDS011;3558;53.176;10.412;2024-03-08T01:23:20;9.30;;;6.85;;
7033;SDS011;3558;53.176;10.412;2024-03-08T01:25:46;8.95;;;6.82;;
7033;SDS011;3558;53.176;10.412;2024-03-08T01:28:12;8.05;;;6.10;;
7033;SDS011;3558;53.176;10.412;2024-03-08T01:30:37;8.90;;;6.43;;
7033;SDS011;3558;53.176;10.412;2024-03-08T01:33:03;7.90;;;6.00;;
7033;SDS011;3558;53.176;10.412;2024-03-08T01:35:29;7.20;;;6.10;;
7033;SDS011;3558;53.176;10.412;2024-03-08T01:37:54;7.93;;;5.63;;
7033;SDS011;3558;53.176;10.412;2024-03-08T01:40:20;8.40;;;6.40;;
7033;SDS011;3558;53.176;10.412;2024-03-08T01:42:45;7.85;;;6.20;;
7033;SDS011;3558;53.176;10.412;2024-03-08T01:45:12;8.05;;;6.30;;
7033;SDS011;3558;53.176;10.412;2024-03-08T01:47:38;8.23;;;6.37;;
7033;SDS011;3558;53.176;10.412;2024-03-08T01:50:04;9.47;;;6.60;;
7033;SDS011;3558;53.176;10.412;2024-03-08T01:52:31;7.87;;;6.23;;
7033;SDS011;3558;53.176;10.412;2024-03-08T01:55:01;8.77;;;6.40;;
7033;SDS011;3558;53.176;10.412;2024-03-08T01:57:34;9.70;;;6.30;;
7033;SDS011;3558;53.176;10.412;2024-03-08T02:00:00;8.15;;;6.28;;
7033;SDS011;3558;53.176;10.412;2024-03-08T02:02:28;8.10;;;6.35;;
7033;SDS011;3558;53.176;10.412;2024-03-08T02:04:57;7.90;;;6.35;;
7033;SDS011;3558;53.176;10.412;2024-03-08T02:07:23;8.80;;;6.45;;
7033;SDS011;3558;53.176;10.412;2024-03-08T02:09:48;8.43;;;6.10;;
7033;SDS011;3558;53.176;10.412;2024-03-08T02:12:14;9.30;;;6.47;;
7033;SDS011;3558;53.176;10.412;2024-03-08T02:14:39;8.37;;;6.20;;
7033;SDS011;3558;53.176;10.412;2024-03-08T02:17:05;8.73;;;6.50;;
7033;SDS011;3558;53.176;10.412;2024-03-08T02:19:30;8.70;;;6.05;;
7033;SDS011;3558;53.176;10.412;2024-03-08T02:21:57;8.95;;;6.28;;
7033;SDS011;3558;53.176;10.412;2024-03-08T02:24:24;7.72;;;6.22;;
7033;SDS011;3558;53.176;10.412;2024-03-08T02:26:50;7.68;;;5.93;;
7033;SDS011;3558;53.176;10.412;2024-03-08T02:29:16;7.53;;;5.93;;
7033;SDS011;3558;53.176;10.412;2024-03-08T03:46:50;9.38;;;6.35;;
7033;SDS011;3558;53.176;10.412;2024-03-08T03:49:17;8.10;;;6.20;;
7033;SDS011;3558;53.176;10.412;2024-03-08T03:51:42;8.63;;;6.00;;
7033;SDS011;3558;53.176;10.412;2024-03-08T03:54:09;7.55;;;5.90;;
7033;SDS011;3558;53.176;10.412;2024-03-08T03:56:35;8.85;;;6.55;;
7033;SDS011;3558;53.176;10.412;2024-03-08T03:59:00;8.07;;;5.97;;
7033;SDS011;3558;53.176;10.412;2024-03-08T04:01:26;8.27;;;6.30;;
7033;SDS011;3558;53.176;10.412;2024-03-08T04:03:51;8.47;;;6.43;;
7033;SDS011;3558;53.176;10.412;2024-03-08T04:06:17;7.40;;;5.90;;
7033;SDS011;3558;53.176;10.412;2024-03-08T04:08:42;9.27;;;6.40;;
7033;SDS011;3558;53.176;10.412;2024-03-08T04:11:08;8.93;;;6.20;;
7033;SDS011;3558;53.176;10.412;2024-03-08T04:13:33;8.05;;;6.20;;
7033;SDS011;3558;53.176;10.412;2024-03-08T04:15:59;8.80;;;6.18;;
7033;SDS011;3558;53.176;10.412;2024-03-08T04:18:25;7.97;;;6.07;;
7033;SDS011;3558;53.176;10.412;2024-03-08T04:20:51;8.38;;;6.18;;
7033;SDS011;3558;53.176;10.412;2024-03-08T04:23:16;8.37;;;6.13;;
7033;SDS011;3558;53.176;10.412;2024-03-08T04:25:43;7.78;;;5.72;;
7033;SDS011;3558;53.176;10.412;2024-03-08T04:28:08;7.70;;;6.05;;
7033;SDS011;3558;53.176;10.412;2024-03-08T04:30:37;7.90;;;6.03;;
7033;SDS011;3558;53.176;10.412;2024-03-08T04:33:04;8.55;;;6.22;;
7033;SDS011;3558;53.176;10.412;2024-03-08T04:35:30;8.73;;;6.03;;
7033;SDS011;3558;53.176;10.412;2024-03-08T04:37:56;9.53;;;6.30;;
7033;SDS011;3558;53.176;10.412;2024-03-08T04:40:22;8.63;;;6.30;;
7033;SDS011;3558;53.176;10.412;2024-03-08T04:42:48;8.60;;;6.57;;
7033;SDS011;3558;53.176;10.412;2024-03-08T04:45:15;9.25;;;6.55;;
7033;SDS011;3558;53.176;10.412;2024-03-08T04:47:41;9.15;;;6.60;;
7033;SDS011;3558;53.176;10.412;2024-03-08T04:50:07;8.23;;;6.43;;
7033;SDS011;3558;53.176;10.412;2024-03-08T04:52:33;9.48;;;6.70;;
7033;SDS011;3558;53.176;10.412;2024-03-08T04:55:00;8.38;;;6.40;;
7033;SDS011;3558;53.176;10.412;2024-03-08T04:57:26;8.55;;;6.80;;
7033;SDS011;3558;53.176;10.412;2024-03-08T04:59:52;9.27;;;5.83;;
7033;SDS011;3558;53.176;10.412;2024-03-08T05:02:18;8.80;;;5.67;;
7033;SDS011;3558;53.176;10.412;2024-03-08T05:04:43;10.40;;;7.25;;
7033;SDS011;3558;53.176;10.412;2024-03-08T05:07:09;10.45;;;7.13;;
7033;SDS011;3558;53.176;10.412;2024-03-08T05:09:34;10.35;;;7.45;;
7033;SDS011;3558;53.176;10.412;2024-03-08T05:12:01;10.48;;;7.63;;
7033;SDS011;3558;53.176;10.412;2024-03-08T05:14:26;11.52;;;8.05;;
7033;SDS011;3558;53.176;10.412;2024-03-08T05:16:52;11.30;;;7.57;;
7033;SDS011;3558;53.176;10.412;2024-03-08T05:19:18;10.27;;;7.33;;
7033;SDS011;3558;53.176;10.412;2024-03-08T05:21:45;11.48;;;8.18;;
7033;SDS011;3558;53.176;10.412;2024-03-08T05:24:14;11.27;;;8.40;;
7033;SDS011;3558;53.176;10.412;2024-03-08T05:26:40;12.07;;;9.17;;
7033;SDS011;3558;53.176;10.412;2024-03-08T05:29:06;13.50;;;9.98;;
7033;SDS011;3558;53.176;10.412;2024-03-08T05:31:36;14.18;;;11.18;;
7033;SDS011;3558;53.176;10.412;2024-03-08T05:34:08;14.90;;;11.50;;
7033;SDS011;3558;53.176;10.412;2024-03-08T05:36:35;13.00;;;11.10;;
7033;SDS011;3558;53.176;10.412;2024-03-08T05:39:00;12.97;;;10.93;;
7033;SDS011;3558;53.176;10.412;2024-03-08T05:41:26;13.47;;;11.00;;
7033;SDS011;3558;53.176;10.412;2024-03-08T05:43:51;12.93;;;11.03;;
7033;SDS011;3558;53.176;10.412;2024-03-08T05:46:16;14.03;;;10.93;;
7033;SDS011;3558;53.176;10.412;2024-03-08T05:48:43;14.50;;;11.57;;
7033;SDS011;3558;53.176;10.412;2024-03-08T05:51:08;13.50;;;10.40;;
7033;SDS011;3558;53.176;10.412;2024-03-08T05:53:34;14.27;;;10.75;;
7033;SDS011;3558;53.176;10.412;2024-03-08T05:56:00;13.77;;;11.03;;
7033;SDS011;3558;53.176;10.412;2024-03-08T05:58:27;13.43;;;10.35;;
7033;SDS011;3558;53.176;10.412;2024-03-08T06:00:55;13.38;;;10.50;;
7033;SDS011;3558;53.176;10.412;2024-03-08T06:03:20;12.05;;;10.07;;
7033;SDS011;3558;53.176;10.412;2024-03-08T06:05:46;12.45;;;9.63;;
7033;SDS011;3558;53.176;10.412;2024-03-08T06:08:13;14.27;;;10.48;;
7033;SDS011;3558;53.176;10.412;2024-03-08T06:10:39;14.38;;;11.27;;
7033;SDS011;3558;53.176;10.412;2024-03-08T06:13:05;15.75;;;11.60;;
7033;SDS011;3558;53.176;10.412;2024-03-08T06:15:31;14.53;;;11.10;;
7033;SDS011;3558;53.176;10.412;2024-03-08T06:17:57;15.43;;;11.60;;
7033;SDS011;3558;53.176;10.412;2024-03-08T06:20:22;15.50;;;11.10;;
7033;SDS011;3558;53.176;10.412;2024-03-08T06:22:51;15.05;;;11.80;;
7033;SDS011;3558;53.176;10.412;2024-03-08T06:25:17;15.57;;;12.15;;
7033;SDS011;3558;53.176;10.412;2024-03-08T06:27:42;15.30;;;12.20;;
7033;SDS011;3558;53.176;10.412;2024-03-08T06:30:09;15.93;;;11.57;;
7033;SDS011;3558;53.176;10.412;2024-03-08T06:32:36;13.77;;;11.18;;
7033;SDS011;3558;53.176;10.412;2024-03-08T06:35:03;14.15;;;11.25;;
7033;SDS011;3558;53.176;10.412;2024-03-08T06:37:31;15.27;;;11.88;;
7033;SDS011;3558;53.176;10.412;2024-03-08T06:39:59;14.15;;;10.60;;
7033;SDS011;3558;53.176;10.412;2024-03-08T06:42:26;14.05;;;11.13;;
7033;SDS011;3558;53.176;10.412;2024-03-08T06:44:59;15.13;;;11.13;;
7033;SDS011;3558;53.176;10.412;2024-03-08T06:47:29;13.88;;;10.80;;
7033;SDS011;3558;53.176;10.412;2024-03-08T06:49:55;12.50;;;10.02;;
7033;SDS011;3558;53.176;10.412;2024-03-08T06:52:20;13.53;;;10.40;;
7033;SDS011;3558;53.176;10.412;2024-03-08T06:54:47;13.63;;;10.50;;
7033;SDS011;3558;53.176;10.412;2024-03-08T06:57:12;12.75;;;10.25;;
7033;SDS011;3558;53.176;10.412;2024-03-08T06:59:38;13.47;;;10.27;;
7033;SDS011;3558;53.176;10.412;2024-03-08T07:02:04;12.77;;;10.02;;
7033;SDS011;3558;53.176;10.412;2024-03-08T07:04:30;13.23;;;10.07;;
7033;SDS011;3558;53.176;10.412;2024-03-08T07:06:56;13.38;;;9.63;;
7033;SDS011;3558;53.176;10.412;2024-03-08T07:09:22;13.35;;;9.68;;
7033;SDS011;3558;53.176;10.412;2024-03-08T07:11:48;12.52;;;9.68;;
7033;SDS011;3558;53.176;10.412;2024-03-08T07:14:19;11.38;;;9.45;;
7033;SDS011;3558;53.176;10.412;2024-03-08T07:16:48;13.40;;;10.13;;
7033;SDS011;3558;53.176;10.412;2024-03-08T07:19:14;12.55;;;9.50;;
7033;SDS011;3558;53.176;10.412;2024-03-08T07:21:40;11.85;;;9.05;;
7033;SDS011;3558;53.176;10.412;2024-03-08T07:24:06;12.70;;;9.65;;
7033;SDS011;3558;53.176;10.412;2024-03-08T07:26:42;12.43;;;9.40;;
7033;SDS011;3558;53.176;10.412;2024-03-08T07:29:07;13.10;;;9.93;;
7033;SDS011;3558;53.176;10.412;2024-03-08T07:31:33;12.90;;;9.90;;
7033;SDS011;3558;53.176;10.412;2024-03-08T07:34:17;12.75;;;9.35;;
7033;SDS011;3558;53.176;10.412;2024-03-08T07:36:43;14.07;;;10.00;;
7033;SDS011;3558;53.176;10.412;2024-03-08T07:39:08;13.63;;;9.83;;
7033;SDS011;3558;53.176;10.412;2024-03-08T07:41:38;14.63;;;9.82;;
7033;SDS011;3558;53.176;10.412;2024-03-08T07:44:05;12.27;;;10.07;;
7033;SDS011;3558;53.176;10.412;2024-03-08T07:46:34;12.40;;;9.48;;
7033;SDS011;3558;53.176;10.412;2024-03-08T07:48:59;14.43;;;9.85;;
7033;SDS011;3558;53.176;10.412;2024-03-08T07:51:25;15.38;;;10.38;;
7033;SDS011;3558;53.176;10.412;2024-03-08T07:53:51;13.55;;;10.18;;
7033;SDS011;3558;53.176;10.412;2024-03-08T07:56:16;13.60;;;9.83;;
7033;SDS011;3558;53.176;10.412;2024-03-08T07:58:43;12.88;;;9.68;;
7033;SDS011;3558;53.176;10.412;2024-03-08T08:01:15;14.10;;;10.37;;
7033;SDS011;3558;53.176;10.412;2024-03-08T08:03:41;13.50;;;10.13;;
7033;SDS011;3558;53.176;10.412;2024-03-08T08:06:07;12.93;;;9.83;;
7033;SDS011;3558;53.176;10.412;2024-03-08T08:08:32;14.83;;;10.20;;
7033;SDS011;3558;53.176;10.412;2024-03-08T08:10:58;14.70;;;10.70;;
7033;SDS011;3558;53.176;10.412;2024-03-08T08:13:24;14.60;;;10.37;;
7033;SDS011;3558;53.176;10.412;2024-03-08T08:15:49;14.90;;;10.70;;
7033;SDS011;3558;53.176;10.412;2024-03-08T08:18:15;14.63;;;10.33;;
7033;SDS011;3558;53.176;10.412;2024-03-08T08:20:40;14.67;;;10.50;;
7033;SDS011;3558;53.176;10.412;2024-03-08T08:23:06;13.80;;;10.57;;
7033;SDS011;3558;53.176;10.412;2024-03-08T08:25:31;14.27;;;10.60;;
7033;SDS011;3558;53.176;10.412;2024-03-08T08:27:59;14.13;;;9.77;;
7033;SDS011;3558;53.176;10.412;2024-03-08T08:30:25;15.23;;;10.70;;
7033;SDS011;3558;53.176;10.412;2024-03-08T08:32:50;14.57;;;10.88;;
7033;SDS011;3558;53.176;10.412;2024-03-08T08:35:16;15.25;;;10.55;;
7033;SDS011;3558;53.176;10.412;2024-03-08T08:37:43;14.20;;;10.52;;
7033;SDS011;3558;53.176;10.412;2024-03-08T08:40:09;14.65;;;10.40;;
7033;SDS011;3558;53.176;10.412;2024-03-08T08:42:36;14.85;;;10.65;;
7033;SDS011;3558;53.176;10.412;2024-03-08T08:45:02;14.82;;;10.30;;
7033;SDS011;3558;53.176;10.412;2024-03-08T08:47:28;13.00;;;9.82;;
7033;SDS011;3558;53.176;10.412;2024-03-08T08:49:54;13.60;;;9.80;;
7033;SDS011;3558;53.176;10.412;2024-03-08T08:52:19;14.00;;;10.00;;
7033;SDS011;3558;53.176;10.412;2024-03-08T08:54:45;12.05;;;9.32;;
7033;SDS011;3558;53.176;10.412;2024-03-08T08:57:10;13.25;;;9.95;;
7033;SDS011;3558;53.176;10.412;2024-03-08T08:59:36;12.75;;;9.43;;
7033;SDS011;3558;53.176;10.412;2024-03-08T09:02:04;13.13;;;9.75;;
7033;SDS011;3558;53.176;10.412;2024-03-08T09:04:30;14.52;;;10.13;;
7033;SDS011;3558;53.176;10.412;2024-03-08T09:06:56;14.00;;;10.17;;
7033;SDS011;3558;53.176;10.412;2024-03-08T09:09:22;13.45;;;9.80;;
7033;SDS011;3558;53.176;10.412;2024-03-08T09:11:47;13.07;;;9.85;;
7033;SDS011;3558;53.176;10.412;2024-03-08T09:14:14;12.63;;;9.55;;
7033;SDS011;3558;53.176;10.412;2024-03-08T09:16:40;14.95;;;10.85;;
7033;SDS011;3558;53.176;10.412;2024-03-08T09:19:05;13.57;;;9.60;;
7033;SDS011;3558;53.176;10.412;2024-03-08T09:21:31;13.98;;;10.45;;
7033;SDS011;3558;53.176;10.412;2024-03-08T09:23:57;14.10;;;10.67;;
7033;SDS011;3558;53.176;10.412;2024-03-08T09:26:23;15.13;;;11.27;;
7033;SDS011;3558;53.176;10.412;2024-03-08T09:28:49;14.53;;;10.57;;
7033;SDS011;3558;53.176;10.412;2024-03-08T09:31:14;12.67;;;9.93;;
7033;SDS011;3558;53.176;10.412;2024-03-08T09:33:40;13.87;;;10.77;;
7033;SDS011;3558;53.176;10.412;2024-03-08T09:36:07;13.63;;;10.45;;
7033;SDS011;3558;53.176;10.412;2024-03-08T09:38:33;14.30;;;10.48;;
7033;SDS011;3558;53.176;10.412;2024-03-08T09:41:01;14.75;;;11.07;;
7033;SDS011;3558;53.176;10.412;2024-03-08T09:43:28;13.40;;;10.27;;
7033;SDS011;3558;53.176;10.412;2024-03-08T09:45:54;13.33;;;9.97;;
7033;SDS011;3558;53.176;10.412;2024-03-08T09:48:20;15.87;;;11.03;;
7033;SDS011;3558;53.176;10.412;2024-03-08T09:50:47;15.55;;;11.70;;
7033;SDS011;3558;53.176;10.412;2024-03-08T09:53:13;15.23;;;10.95;;
7033;SDS011;3558;53.176;10.412;2024-03-08T09:55:39;14.48;;;11.10;;
7033;SDS011;3558;53.176;10.412;2024-03-08T09:58:07;15.55;;;11.18;;
7033;SDS011;3558;53.176;10.412;2024-03-08T10:00:56;14.23;;;10.70;;
7033;SDS011;3558;53.176;10.412;2024-03-08T10:03:22;14.25;;;10.63;;
7033;SDS011;3558;53.176;10.412;2024-03-08T10:05:48;13.38;;;10.52;;
7033;SDS011;3558;53.176;10.412;2024-03-08T10:08:13;12.67;;;9.87;;
7033;SDS011;3558;53.176;10.412;2024-03-08T10:10:39;13.90;;;10.27;;
7033;SDS011;3558;53.176;10.412;2024-03-08T10:13:05;12.50;;;10.07;;
7033;SDS011;3558;53.176;10.412;2024-03-08T10:15:35;14.20;;;10.30;;
7033;SDS011;3558;53.176;10.412;2024-03-08T10:18:01;13.35;;;10.23;;
7033;SDS011;3558;53.176;10.412;2024-03-08T10:20:27;12.83;;;10.00;;
7033;SDS011;3558;53.176;10.412;2024-03-08T10:22:59;13.75;;;10.38;;
7033;SDS011;3558;53.176;10.412;2024-03-08T10:25:25;14.13;;;10.52;;
7033;SDS011;3558;53.176;10.412;2024-03-08T10:27:51;12.73;;;9.77;;
7033;SDS011;3558;53.176;10.412;2024-03-08T10:30:16;12.43;;;9.90;;
7033;SDS011;3558;53.176;10.412;2024-03-08T10:32:46;12.95;;;9.70;;
7033;SDS011;3558;53.176;10.412;2024-03-08T10:35:12;12.70;;;9.82;;
7033;SDS011;3558;53.176;10.412;2024-03-08T10:37:44;12.80;;;9.80;;
7033;SDS011;3558;53.176;10.412;2024-03-08T10:40:16;11.70;;;9.35;;
7033;SDS011;3558;53.176;10.412;2024-03-08T10:42:47;12.38;;;9.65;;
7033;SDS011;3558;53.176;10.412;2024-03-08T10:45:26;12.48;;;9.70;;
7033;SDS011;3558;53.176;10.412;2024-03-08T10:48:04;12.57;;;9.88;;
7033;SDS011;3558;53.176;10.412;2024-03-08T10:50:36;12.35;;;9.55;;
7033;SDS011;3558;53.176;10.412;2024-03-08T10:53:03;12.35;;;9.40;;
7033;SDS011;3558;53.176;10.412;2024-03-08T10:55:31;11.65;;;9.38;;
7033;SDS011;3558;53.176;10.412;2024-03-08T10:58:00;11.05;;;8.93;;
7033;SDS011;3558;53.176;10.412;2024-03-08T11:00:25;10.82;;;8.88;;
7033;SDS011;3558;53.176;10.412;2024-03-08T11:02:52;11.55;;;8.93;;
7033;SDS011;3558;53.176;10.412;2024-03-08T11:05:31;11.02;;;8.80;;
7033;SDS011;3558;53.176;10.412;2024-03-08T11:08:22;12.55;;;9.02;;
7033;SDS011;3558;53.176;10.412;2024-03-08T11:10:52;11.02;;;8.93;;
7033;SDS011;3558;53.176;10.412;2024-03-08T11:15:59;10.73;;;8.57;;
7033;SDS011;3558;53.176;10.412;2024-03-08T11:18:26;10.30;;;8.65;;
7033;SDS011;3558;53.176;10.412;2024-03-08T11:20:53;11.50;;;8.80;;
7033;SDS011;3558;53.176;10.412;2024-03-08T11:23:22;10.13;;;8.30;;
7033;SDS011;3558;53.176;10.412;2024-03-08T11:25:48;10.77;;;8.80;;
7033;SDS011;3558;53.176;10.412;2024-03-08T11:28:19;10.93;;;8.43;;
7033;SDS011;3558;53.176;10.412;2024-03-08T11:30:45;10.93;;;8.77;;
7033;SDS011;3558;53.176;10.412;2024-03-08T11:33:34;10.70;;;7.95;;
7033;SDS011;3558;53.176;10.412;2024-03-08T11:38:39;10.47;;;8.50;;
7033;SDS011;3558;53.176;10.412;2024-03-08T11:41:05;9.35;;;8.10;;
7033;SDS011;3558;53.176;10.412;2024-03-08T11:43:31;9.55;;;7.60;;
7033;SDS011;3558;53.176;10.412;2024-03-08T11:46:09;11.10;;;8.23;;
7033;SDS011;3558;53.176;10.412;2024-03-08T11:48:37;10.82;;;8.30;;
7033;SDS011;3558;53.176;10.412;2024-03-08T11:51:02;11.13;;;8.65;;
7033;SDS011;3558;53.176;10.412;2024-03-08T11:53:29;10.60;;;7.80;;
7033;SDS011;3558;53.176;10.412;2024-03-08T11:56:05;9.20;;;7.37;;
7033;SDS011;3558;53.176;10.412;2024-03-08T11:58:34;8.90;;;7.50;;
7033;SDS011;3558;53.176;10.412;2024-03-08T12:01:03;9.30;;;7.82;;
7033;SDS011;3558;53.176;10.412;2024-03-08T12:03:34;10.60;;;7.77;;
7033;SDS011;3558;53.176;10.412;2024-03-08T12:06:00;9.53;;;7.57;;
7033;SDS011;3558;53.176;10.412;2024-03-08T12:08:27;9.60;;;7.53;;
7033;SDS011;3558;53.176;10.412;2024-03-08T12:10:56;9.48;;;7.47;;
7033;SDS011;3558;53.176;10.412;2024-03-08T12:13:34;9.20;;;7.57;;
7033;SDS011;3558;53.176;10.412;2024-03-08T12:16:00;8.15;;;6.82;;
7033;SDS011;3558;53.176;10.412;2024-03-08T12:18:35;9.63;;;7.50;;
7033;SDS011;3558;53.176;10.412;2024-03-08T12:21:06;8.93;;;7.38;;
7033;SDS011;3558;53.176;10.412;2024-03-08T12:24:03;10.13;;;7.20;;
7033;SDS011;3558;53.176;10.412;2024-03-08T12:26:30;9.15;;;7.25;;
7033;SDS011;3558;53.176;10.412;2024-03-08T12:29:13;8.43;;;6.75;;
7033;SDS011;3558;53.176;10.412;2024-03-08T12:31:47;8.15;;;6.60;;
7033;SDS011;3558;53.176;10.412;2024-03-08T12:34:17;9.00;;;7.15;;
7033;SDS011;3558;53.176;10.412;2024-03-08T12:36:44;7.95;;;6.35;;
7033;SDS011;3558;53.176;10.412;2024-03-08T12:39:12;8.05;;;6.28;;
7033;SDS011;3558;53.176;10.412;2024-03-08T12:41:40;8.38;;;6.50;;
7033;SDS011;3558;53.176;10.412;2024-03-08T12:44:06;7.87;;;6.20;;
7033;SDS011;3558;53.176;10.412;2024-03-08T12:46:36;7.78;;;6.35;;
7033;SDS011;3558;53.176;10.412;2024-03-08T12:49:05;7.30;;;5.85;;
7033;SDS011;3558;53.176;10.412;2024-03-08T12:51:34;7.75;;;6.60;;
7033;SDS011;3558;53.176;10.412;2024-03-08T12:54:01;6.60;;;5.90;;
7033;SDS011;3558;53.176;10.412;2024-03-08T12:56:30;7.13;;;5.80;;
7033;SDS011;3558;53.176;10.412;2024-03-08T12:58:58;8.13;;;6.13;;
7033;SDS011;3558;53.176;10.412;2024-03-08T13:01:23;7.97;;;5.77;;
7033;SDS011;3558;53.176;10.412;2024-03-08T13:03:49;7.00;;;5.60;;
7033;SDS011;3558;53.176;10.412;2024-03-08T13:06:15;7.05;;;6.05;;
7033;SDS011;3558;53.176;10.412;2024-03-08T13:08:41;6.70;;;5.90;;
7033;SDS011;3558;53.176;10.412;2024-03-08T13:11:07;7.32;;;5.70;;
7033;SDS011;3558;53.176;10.412;2024-03-08T13:13:33;6.63;;;5.72;;
7033;SDS011;3558;53.176;10.412;2024-03-08T13:16:01;6.63;;;5.53;;
7033;SDS011;3558;53.176;10.412;2024-03-08T13:18:27;6.97;;;5.72;;
7033;SDS011;3558;53.176;10.412;2024-03-08T13:20:53;7.45;;;5.18;;
7033;SDS011;3558;53.176;10.412;2024-03-08T13:23:19;6.53;;;5.27;;
7033;SDS011;3558;53.176;10.412;2024-03-08T13:25:45;7.20;;;5.33;;
7033;SDS011;3558;53.176;10.412;2024-03-08T13:28:12;7.55;;;5.75;;
7033;SDS011;3558;53.176;10.412;2024-03-08T13:30:38;9.43;;;7.00;;
7033;SDS011;3558;53.176;10.412;2024-03-08T13:33:04;9.20;;;7.37;;
7033;SDS011;3558;53.176;10.412;2024-03-08T13:35:30;10.70;;;8.27;;
7033;SDS011;3558;53.176;10.412;2024-03-08T13:37:55;13.00;;;10.43;;
7033;SDS011;3558;53.176;10.412;2024-03-08T13:40:21;12.60;;;9.85;;
7033;SDS011;3558;53.176;10.412;2024-03-08T13:42:47;11.50;;;9.60;;
7033;SDS011;3558;53.176;10.412;2024-03-08T13:45:14;9.77;;;8.02;;
7033;SDS011;3558;53.176;10.412;2024-03-08T13:47:43;11.63;;;9.50;;
7033;SDS011;3558;53.176;10.412;2024-03-08T13:50:09;11.98;;;9.70;;
7033;SDS011;3558;53.176;10.412;2024-03-08T13:52:42;11.07;;;8.77;;
7033;SDS011;3558;53.176;10.412;2024-03-08T13:55:09;10.33;;;8.37;;
7033;SDS011;3558;53.176;10.412;2024-03-08T13:57:35;9.20;;;7.63;;
7033;SDS011;3558;53.176;10.412;2024-03-08T14:00:01;8.00;;;7.05;;
7033;SDS011;3558;53.176;10.412;2024-03-08T14:02:28;9.65;;;7.22;;
7033;SDS011;3558;53.176;10.412;2024-03-08T14:04:55;19.95;;;16.15;;
7033;SDS011;3558;53.176;10.412;2024-03-08T14:07:21;21.27;;;17.88;;
7033;SDS011;3558;53.176;10.412;2024-03-08T14:09:48;19.10;;;15.93;;
7033;SDS011;3558;53.176;10.412;2024-03-08T14:12:14;14.65;;;12.52;;
7033;SDS011;3558;53.176;10.412;2024-03-08T14:14:40;12.68;;;10.43;;
7033;SDS011;3558;53.176;10.412;2024-03-08T14:17:07;11.15;;;9.10;;
7033;SDS011;3558;53.176;10.412;2024-03-08T14:19:34;10.27;;;8.68;;
7033;SDS011;3558;53.176;10.412;2024-03-08T14:22:00;9.32;;;8.05;;
7033;SDS011;3558;53.176;10.412;2024-03-08T14:24:29;8.70;;;7.20;;
7033;SDS011;3558;53.176;10.412;2024-03-08T14:26:55;8.67;;;7.10;;
7033;SDS011;3558;53.176;10.412;2024-03-08T14:29:20;8.33;;;6.93;;
7033;SDS011;3558;53.176;10.412;2024-03-08T14:31:45;8.63;;;6.83;;
7033;SDS011;3558;53.176;10.412;2024-03-08T14:34:11;8.37;;;6.40;;
7033;SDS011;3558;53.176;10.412;2024-03-08T14:36:39;7.97;;;6.50;;
7033;SDS011;3558;53.176;10.412;2024-03-08T14:39:04;8.10;;;6.50;;
7033;SDS011;3558;53.176;10.412;2024-03-08T14:41:31;7.30;;;6.10;;
7033;SDS011;3558;53.176;10.412;2024-03-08T14:43:57;7.90;;;6.07;;
7033;SDS011;3558;53.176;10.412;2024-03-08T14:46:22;6.70;;;5.80;;
7033;SDS011;3558;53.176;10.412;2024-03-08T14:48:51;6.80;;;5.72;;
7033;SDS011;3558;53.176;10.412;2024-03-08T14:51:18;7.55;;;5.97;;
7033;SDS011;3558;53.176;10.412;2024-03-08T14:53:46;7.82;;;6.32;;
7033;SDS011;3558;53.176;10.412;2024-03-08T14:56:12;7.65;;;6.10;;
7033;SDS011;3558;53.176;10.412;2024-03-08T14:58:41;7.45;;;6.10;;
7033;SDS011;3558;53.176;10.412;2024-03-08T15:01:11;7.80;;;6.22;;
7033;SDS011;3558;53.176;10.412;2024-03-08T15:03:40;8.27;;;6.28;;
7033;SDS011;3558;53.176;10.412;2024-03-08T15:06:09;8.75;;;7.10;;
7033;SDS011;3558;53.176;10.412;2024-03-08T15:08:35;8.52;;;6.78;;
7033;SDS011;3558;53.176;10.412;2024-03-08T15:11:07;9.50;;;6.70;;
7033;SDS011;3558;53.176;10.412;2024-03-08T15:13:33;9.50;;;6.95;;
7033;SDS011;3558;53.176;10.412;2024-03-08T15:16:04;8.85;;;7.00;;
7033;SDS011;3558;53.176;10.412;2024-03-08T15:18:31;8.48;;;6.68;;
7033;SDS011;3558;53.176;10.412;2024-03-08T15:20:59;8.15;;;6.43;;
7033;SDS011;3558;53.176;10.412;2024-03-08T15:23:36;7.75;;;6.03;;
7033;SDS011;3558;53.176;10.412;2024-03-08T15:26:02;7.75;;;6.05;;
7033;SDS011;3558;53.176;10.412;2024-03-08T15:28:32;8.38;;;5.80;;
7033;SDS011;3558;53.176;10.412;2024-03-08T15:31:02;8.27;;;6.05;;
7033;SDS011;3558;53.176;10.412;2024-03-08T15:33:34;8.88;;;7.00;;
7033;SDS011;3558;53.176;10.412;2024-03-08T15:36:11;9.43;;;7.38;;
7033;SDS011;3558;53.176;10.412;2024-03-08T15:38:39;9.63;;;7.40;;
7033;SDS011;3558;53.176;10.412;2024-03-08T15:41:05;10.02;;;7.50;;
7033;SDS011;3558;53.176;10.412;2024-03-08T15:43:35;9.80;;;7.75;;
7033;SDS011;3558;53.176;10.412;2024-03-08T15:46:02;11.23;;;8.67;;
7033;SDS011;3558;53.176;10.412;2024-03-08T15:48:35;9.73;;;8.05;;
7033;SDS011;3558;53.176;10.412;2024-03-08T15:51:02;10.82;;;8.15;;
7033;SDS011;3558;53.176;10.412;2024-03-08T15:53:29;11.15;;;8.43;;
7033;SDS011;3558;53.176;10.412;2024-03-08T15:55:58;9.90;;;8.45;;
7033;SDS011;3558;53.176;10.412;2024-03-08T15:58:24;10.67;;;8.47;;
7033;SDS011;3558;53.176;10.412;2024-03-08T16:00:50;10.15;;;8.50;;
7033;SDS011;3558;53.176;10.412;2024-03-08T16:03:18;10.07;;;8.15;;
7033;SDS011;3558;53.176;10.412;2024-03-08T16:05:47;10.73;;;8.48;;
7033;SDS011;3558;53.176;10.412;2024-03-08T16:08:17;10.63;;;8.90;;
7033;SDS011;3558;53.176;10.412;2024-03-08T16:10:45;11.55;;;9.00;;